CDT,Max TemperatureF,Mean TemperatureF,Min TemperatureF,Max Dew PointF,MeanDew PointF,Min DewpointF,Max Humidity, Mean Humidity, Min Humidity, Max Sea Level PressureIn, Mean Sea Level PressureIn, Min Sea Level PressureIn, Max VisibilityMiles, Mean VisibilityMiles, Min VisibilityMiles, Max Wind SpeedMPH, Mean Wind SpeedMPH, Max Gust SpeedMPH,PrecipitationIn, CloudCover, Events, WindDirDegrees
2011-10-1,73,52,30,39,35,28,92,59,26,30.32,30.24,30.19,10,10,7,14,5,20,0.00,0,,159
2011-10-2,82,60,39,43,39,34,86,58,20,30.24,30.17,30.09,10,9,5,14,6,18,0.00,0,,167
2011-10-3,84,60,39,45,40,35,86,55,23,30.18,30.12,30.07,10,9,7,15,5,23,0.00,0,,153
2011-10-4,82,65,55,46,43,41,64,50,28,30.09,30.04,29.99,10,10,8,12,8,18,0.00,0,,144
2011-10-5,,,,,,,,,,30.07,30.01,29.95,,,,,,,0.00,,,-1
2011-10-6,81,76,72,50,47,44,41,36,30,29.98,29.92,29.83,10,9,6,29,20,43,0.00,0,,146
2011-10-7,82,75,68,60,55,48,56,49,41,29.91,29.85,29.83,10,10,8,26,19,39,0.00,4,,165
2011-10-8,79,72,66,63,57,51,90,61,46,30.06,29.99,29.91,10,9,2,21,13,30,0.03,7,Rain,164
2011-10-9,81,70,59,61,56,48,93,69,31,30.13,30.05,29.98,10,8,5,21,7,30,0.00,5,Rain,151
2011-10-10,73,63,52,58,54,46,93,74,38,30.04,29.99,29.90,10,9,2,13,7,17,0.04,5,Rain,188
2011-10-11,77,60,44,57,50,45,100,73,45,29.91,29.82,29.72,10,8,1,17,7,24,0.01,2,,147
2011-10-12,73,62,53,58,53,45,96,75,50,29.77,29.71,29.66,10,8,2,16,4,23,0.09,5,Rain-Thunderstorm,306
2011-10-13,73,62,50,45,38,31,71,49,21,29.83,29.79,29.74,10,10,10,24,11,34,0.00,0,,301
2011-10-14,64,55,44,37,32,24,66,47,22,30.03,29.93,29.81,10,10,5,24,12,30,0.00,0,,291
2011-10-15,73,56,39,39,32,25,70,47,21,30.06,29.91,29.73,10,10,7,13,5,23,0.00,1,,207
2011-10-16,64,52,39,43,34,27,76,53,28,30.07,29.98,29.75,10,10,8,20,11,26,0.00,0,,323
2011-10-17,55,44,34,42,36,26,82,67,49,30.06,30.03,29.99,10,10,9,17,4,23,0.05,5,Rain,272
2011-10-18,55,46,34,34,27,19,70,51,25,30.11,30.07,29.99,10,10,10,24,15,32,0.00,1,,328
2011-10-19,48,38,28,27,23,20,75,56,36,30.16,30.12,30.08,10,10,9,20,10,28,0.00,1,,339
2011-10-20,55,42,28,31,28,22,85,62,35,30.10,30.06,30.02,10,10,8,14,8,17,0.00,1,,318
2011-10-21,71,47,23,35,29,17,88,59,26,30.11,30.07,30.01,10,9,6,13,4,,0.00,0,,200
2011-10-22,61,50,39,44,39,33,93,70,49,30.14,30.09,30.01,10,8,6,12,5,,0.01,3,Rain,160
2011-10-23,78,55,33,46,37,31,100,69,24,30.02,29.95,29.84,10,5,0,21,5,24,0.00,0,Fog,206
2011-10-24,73,53,33,40,36,28,82,48,27,30.09,29.95,29.74,10,8,1,16,6,18,0.00,0,,149
2011-10-25,70,60,45,47,43,33,75,55,42,30.06,29.76,29.66,10,9,7,25,11,32,0.00,0,,321
2011-10-26,53,46,39,40,36,32,77,64,50,30.14,30.10,30.05,10,10,9,16,11,22,0.00,4,,332
2011-10-27,57,44,30,32,26,21,85,55,25,30.16,30.13,30.09,10,9,2,15,6,20,0.00,1,,260
2011-10-28,59,44,30,30,20,14,69,47,19,30.21,30.16,30.12,10,10,9,23,9,28,0.00,0,,273
2011-10-29,62,41,21,29,22,13,75,52,26,30.14,29.99,29.80,10,10,9,22,6,30,0.00,1,,154
2011-10-30,60,47,32,36,28,19,68,47,24,30.07,29.97,29.80,10,10,10,28,13,38,0.00,1,,305
2011-10-31,64,42,21,30,24,14,78,52,24,30.10,30.01,29.87,10,10,5,15,7,21,0.00,0,,163